createdAt,value
2022-10-10T00:00:08.466Z,2.83
2022-10-10T00:02:34.941Z,2.05
2022-10-10T00:05:01.339Z,3.05
2022-10-10T00:07:27.641Z,3.08
2022-10-10T00:09:53.946Z,3.17
2022-10-10T00:12:20.272Z,2.80
2022-10-10T00:14:46.566Z,2.90
2022-10-10T00:17:12.895Z,3.15
2022-10-10T00:19:39.249Z,3.25
2022-10-10T00:22:05.596Z,3.13
2022-10-10T00:24:31.893Z,3.35
2022-10-10T00:26:58.280Z,2.65
2022-10-10T00:29:24.600Z,3.03
2022-10-10T00:31:50.911Z,3.10
2022-10-10T00:34:17.277Z,3.75
2022-10-10T00:36:43.583Z,3.17
2022-10-10T00:39:09.874Z,3.38
2022-10-10T00:41:36.319Z,2.80
2022-10-10T00:44:09.124Z,3.10
2022-10-10T00:46:35.997Z,3.22
2022-10-10T00:49:04.775Z,2.88
2022-10-10T00:51:31.344Z,2.60
2022-10-10T00:54:02.710Z,3.38
2022-10-10T00:56:44.017Z,3.17
2022-10-10T00:59:12.393Z,2.60
2022-10-10T01:01:40.972Z,3.58
2022-10-10T01:04:27.265Z,2.72
2022-10-10T01:06:53.650Z,3.10
2022-10-10T01:09:20.012Z,2.80
2022-10-10T01:11:54.851Z,3.00
2022-10-10T01:14:41.896Z,2.92
2022-10-10T01:17:14.558Z,3.75
2022-10-10T01:20:14.497Z,3.22
2022-10-10T01:23:07.943Z,2.97
2022-10-10T01:25:59.017Z,3.35
2022-10-10T01:28:43.682Z,2.90
2022-10-10T01:31:13.696Z,3.08
2022-10-10T01:33:54.810Z,2.90
2022-10-10T01:36:32.931Z,4.47
2022-10-10T01:39:09.158Z,3.90
2022-10-10T01:41:50.382Z,3.70
2022-10-10T01:44:20.504Z,4.63
2022-10-10T01:46:47.042Z,3.25
2022-10-10T01:49:13.400Z,3.13
2022-10-10T01:51:56.340Z,3.03
2022-10-10T01:54:41.318Z,4.40
2022-10-10T01:57:23.499Z,3.03
2022-10-10T02:00:12.688Z,3.88
2022-10-10T02:02:47.705Z,3.10
2022-10-10T02:05:17.277Z,2.92
2022-10-10T02:07:50.765Z,3.00
2022-10-10T02:10:23.353Z,3.05
2022-10-10T02:12:50.748Z,2.75
2022-10-10T02:15:22.359Z,3.45
2022-10-10T02:17:50.857Z,2.72
2022-10-10T02:20:21.845Z,3.00
2022-10-10T02:22:50.616Z,3.25
2022-10-10T02:25:24.166Z,2.78
2022-10-10T02:28:13.813Z,3.22
2022-10-10T02:30:46.630Z,2.65
2022-10-10T02:33:18.530Z,3.05
2022-10-10T02:35:49.270Z,2.85
2022-10-10T02:38:17.291Z,2.70
2022-10-10T02:40:47.296Z,2.55
2022-10-10T02:43:15.232Z,3.63
2022-10-10T02:45:41.650Z,3.60
2022-10-10T02:48:08.800Z,2.80
2022-10-10T02:50:35.403Z,2.97
2022-10-10T02:53:01.719Z,2.83
2022-10-10T02:55:28.139Z,3.10
2022-10-10T02:57:54.486Z,2.67
2022-10-10T03:00:20.988Z,2.90
2022-10-10T03:02:47.491Z,3.03
2022-10-10T03:05:14.500Z,3.05
2022-10-10T03:07:40.833Z,3.03
2022-10-10T03:10:07.581Z,3.30
2022-10-10T03:12:35.190Z,2.65
2022-10-10T03:15:01.867Z,3.15
2022-10-10T03:17:28.225Z,2.83
2022-10-10T03:19:54.539Z,3.13
2022-10-10T03:22:20.873Z,3.25
2022-10-10T03:24:47.253Z,2.90
2022-10-10T03:27:13.595Z,2.90
2022-10-10T03:29:39.903Z,3.92
2022-10-10T03:32:10.269Z,3.08
2022-10-10T03:34:37.439Z,2.80
2022-10-10T03:37:03.760Z,2.95
2022-10-10T03:39:30.182Z,3.15
2022-10-10T03:41:56.527Z,2.60
2022-10-10T03:44:22.900Z,3.40
2022-10-10T03:46:49.307Z,3.40
2022-10-10T03:49:15.666Z,3.00
2022-10-10T03:51:41.985Z,3.33
2022-10-10T03:54:08.393Z,3.13
2022-10-10T03:56:34.711Z,3.45
2022-10-10T03:59:03.646Z,2.67
2022-10-10T04:01:30.743Z,3.45
2022-10-10T04:03:57.157Z,2.72
2022-10-10T04:06:23.570Z,2.63
2022-10-10T04:08:50.179Z,2.97
2022-10-10T04:11:16.608Z,3.00
2022-10-10T04:13:42.944Z,2.85
2022-10-10T04:16:09.312Z,2.63
2022-10-10T04:18:35.664Z,3.30
2022-10-10T04:21:04.136Z,3.03
2022-10-10T04:23:30.636Z,3.10
2022-10-10T04:25:56.987Z,2.65
2022-10-10T04:28:23.338Z,2.85
2022-10-10T04:30:49.911Z,3.13
2022-10-10T04:33:16.234Z,3.42
2022-10-10T04:35:42.580Z,3.20
2022-10-10T04:38:09.147Z,3.10
2022-10-10T04:40:37.550Z,3.33
2022-10-10T04:43:04.075Z,3.50
2022-10-10T04:45:35.216Z,3.00
2022-10-10T04:48:03.767Z,3.80
2022-10-10T04:50:30.297Z,2.90
2022-10-10T04:52:56.599Z,3.05
2022-10-10T04:55:23.159Z,2.97
2022-10-10T04:57:49.564Z,3.90
2022-10-10T05:00:15.931Z,3.20
2022-10-10T05:02:42.295Z,3.80
2022-10-10T05:05:09.132Z,3.28
2022-10-10T05:07:35.563Z,2.72
2022-10-10T05:10:02.377Z,3.28
2022-10-10T05:12:28.803Z,3.25
2022-10-10T05:14:55.140Z,2.95
2022-10-10T05:17:21.450Z,3.63
2022-10-10T05:19:48.119Z,2.92
2022-10-10T05:22:14.469Z,3.50
2022-10-10T05:24:40.984Z,2.72
2022-10-10T05:27:07.317Z,2.78
2022-10-10T05:29:33.665Z,3.38
2022-10-10T05:32:00.036Z,3.33
2022-10-10T05:34:26.511Z,3.30
2022-10-10T05:36:52.920Z,3.28
2022-10-10T05:39:19.250Z,2.90
2022-10-10T05:41:45.548Z,3.45
2022-10-10T05:44:11.884Z,3.10
2022-10-10T05:46:38.256Z,3.55
2022-10-10T05:49:04.602Z,3.35
2022-10-10T05:51:30.977Z,2.83
2022-10-10T05:53:57.488Z,3.08
2022-10-10T05:56:23.872Z,3.00
2022-10-10T05:58:51.539Z,2.95
2022-10-10T06:01:18.368Z,4.13
2022-10-10T06:03:44.688Z,3.47
2022-10-10T06:06:11.023Z,3.60
2022-10-10T06:08:37.341Z,3.28
2022-10-10T06:11:07.970Z,3.25
2022-10-10T06:13:34.691Z,2.92
2022-10-10T06:16:01.040Z,2.83
2022-10-10T06:18:27.461Z,3.03
2022-10-10T06:20:53.767Z,3.63
2022-10-10T06:23:20.592Z,3.60
2022-10-10T06:25:47.175Z,3.53
2022-10-10T06:28:13.535Z,4.18
2022-10-10T06:30:44.218Z,3.38
2022-10-10T06:33:12.339Z,3.47
2022-10-10T06:35:40.771Z,4.28
2022-10-10T06:38:07.265Z,4.03
2022-10-10T06:40:33.675Z,4.22
2022-10-10T06:42:59.997Z,4.88
2022-10-10T06:45:26.562Z,3.92
2022-10-10T06:47:52.910Z,4.15
2022-10-10T06:50:19.232Z,3.65
2022-10-10T06:52:45.534Z,4.00
2022-10-10T06:55:11.883Z,3.90
2022-10-10T06:57:38.198Z,3.95
2022-10-10T07:00:05.680Z,4.10
2022-10-10T07:02:32.116Z,3.97
2022-10-10T07:04:58.486Z,5.13
2022-10-10T07:07:24.840Z,4.05
2022-10-10T07:09:51.173Z,3.83
2022-10-10T07:12:17.509Z,3.60
2022-10-10T07:14:43.852Z,4.25
2022-10-10T07:17:10.200Z,4.80
2022-10-10T07:19:37.762Z,4.90
2022-10-10T07:22:04.107Z,5.15
2022-10-10T07:24:30.498Z,4.20
2022-10-10T07:27:04.787Z,4.47
2022-10-10T07:29:33.109Z,4.18
2022-10-10T07:31:59.646Z,4.78
2022-10-10T07:34:26.028Z,4.57
2022-10-10T07:36:52.422Z,5.18
2022-10-10T07:39:20.599Z,4.35
2022-10-10T07:41:46.993Z,3.83
2022-10-10T07:44:13.343Z,5.05
2022-10-10T07:46:39.656Z,4.35
2022-10-10T07:49:05.986Z,4.00
2022-10-10T07:51:32.329Z,4.32
2022-10-10T07:53:58.828Z,4.03
2022-10-10T07:56:25.239Z,4.47
2022-10-10T07:58:51.655Z,5.07
2022-10-10T08:01:18.277Z,4.05
2022-10-10T08:03:45.310Z,4.30
2022-10-10T08:06:15.431Z,5.57
2022-10-10T08:08:50.861Z,4.18
2022-10-10T08:11:18.993Z,4.55
2022-10-10T08:13:45.407Z,4.53
2022-10-10T08:16:11.900Z,4.35
2022-10-10T08:18:38.262Z,4.22
2022-10-10T08:21:07.664Z,4.22
2022-10-10T08:23:34.337Z,3.70
2022-10-10T08:26:02.434Z,3.47
2022-10-10T08:28:29.481Z,4.40
2022-10-10T08:30:55.953Z,3.67
2022-10-10T08:33:25.507Z,4.43
2022-10-10T08:35:51.844Z,3.88
2022-10-10T08:38:18.190Z,4.40
2022-10-10T08:40:47.690Z,3.47
2022-10-10T08:43:21.782Z,4.18
2022-10-10T08:45:51.028Z,3.03
2022-10-10T08:48:27.285Z,3.92
2022-10-10T08:51:00.629Z,3.65
2022-10-10T08:53:39.173Z,4.18
2022-10-10T08:56:07.845Z,3.20
2022-10-10T08:58:43.017Z,3.85
2022-10-10T09:01:28.063Z,3.42
2022-10-10T09:03:59.121Z,3.10
2022-10-10T09:06:53.615Z,3.00
2022-10-10T09:09:36.689Z,2.88
2022-10-10T09:12:21.623Z,4.28
2022-10-10T09:15:28.238Z,3.17
2022-10-10T09:17:54.563Z,3.08
2022-10-10T09:20:27.131Z,3.30
2022-10-10T09:23:06.045Z,3.30
2022-10-10T09:25:48.740Z,3.42
2022-10-10T09:28:32.939Z,3.17
2022-10-10T09:31:01.857Z,3.00
2022-10-10T09:33:36.909Z,2.97
2022-10-10T09:36:08.425Z,3.15
2022-10-10T09:38:43.312Z,3.28
2022-10-10T09:41:21.920Z,3.60
2022-10-10T09:43:48.451Z,3.03
2022-10-10T09:46:14.920Z,2.47
2022-10-10T09:48:43.063Z,2.63
2022-10-10T09:51:15.508Z,3.15
2022-10-10T09:53:43.467Z,2.85
2022-10-10T09:56:19.457Z,2.83
2022-10-10T09:58:48.778Z,2.75
2022-10-10T10:01:27.346Z,2.70
2022-10-10T10:04:27.778Z,2.78
2022-10-10T10:07:20.334Z,3.55
2022-10-10T10:09:52.167Z,3.13
2022-10-10T10:12:24.037Z,3.60
2022-10-10T10:17:22.328Z,3.25
2022-10-10T10:19:48.733Z,4.75
2022-10-10T10:22:39.497Z,2.92
2022-10-10T10:25:31.412Z,2.92
2022-10-10T10:28:40.487Z,3.30
2022-10-10T10:31:16.990Z,2.85
2022-10-10T10:34:10.430Z,3.28
2022-10-10T10:36:47.279Z,3.53
2022-10-10T10:39:33.543Z,3.85
2022-10-10T10:42:20.742Z,2.83
2022-10-10T10:45:19.003Z,2.92
2022-10-10T10:47:55.652Z,3.17
2022-10-10T10:50:34.653Z,3.13
2022-10-10T10:53:22.720Z,3.13
2022-10-10T10:55:51.346Z,2.83
2022-10-10T11:01:55.975Z,3.10
2022-10-10T11:05:19.394Z,3.28
2022-10-10T11:07:53.449Z,3.58
2022-10-10T11:10:33.023Z,3.13
2022-10-10T11:13:28.855Z,3.80
2022-10-10T11:16:36.676Z,5.10
2022-10-10T11:19:14.350Z,3.38
2022-10-10T11:21:56.089Z,3.28
2022-10-10T11:24:28.393Z,2.75
2022-10-10T11:26:59.807Z,2.72
2022-10-10T11:29:38.859Z,2.75
2022-10-10T11:32:14.996Z,4.38
2022-10-10T11:35:07.207Z,3.13
2022-10-10T11:40:06.289Z,2.85
2022-10-10T11:42:37.458Z,3.30
2022-10-10T11:45:09.774Z,3.95
2022-10-10T11:47:47.923Z,3.83
2022-10-10T11:50:19.916Z,3.85
2022-10-10T11:52:54.431Z,3.80
2022-10-10T11:55:41.810Z,4.18
2022-10-10T11:58:08.079Z,3.22
2022-10-10T12:00:37.861Z,3.28
2022-10-10T12:03:04.255Z,2.95
2022-10-10T12:05:35.253Z,3.38
2022-10-10T12:08:18.068Z,3.05
2022-10-10T12:10:52.399Z,3.13
2022-10-10T12:13:21.441Z,2.70
2022-10-10T12:15:51.850Z,3.03
2022-10-10T12:18:31.811Z,3.08
2022-10-10T12:21:10.401Z,3.03
2022-10-10T12:23:37.913Z,3.38
2022-10-10T12:26:04.781Z,4.13
2022-10-10T12:28:37.412Z,3.72
2022-10-10T12:31:03.957Z,4.00
2022-10-10T12:33:33.446Z,3.22
2022-10-10T12:36:20.984Z,2.90
2022-10-10T12:39:10.329Z,3.10
2022-10-10T12:41:56.050Z,3.30
2022-10-10T12:44:42.899Z,2.92
2022-10-10T12:47:15.418Z,3.50
2022-10-10T12:50:18.749Z,2.92
2022-10-10T12:52:49.582Z,2.78
2022-10-10T12:55:29.598Z,3.13
2022-10-10T12:58:07.180Z,2.50
2022-10-10T13:00:39.447Z,2.65
2022-10-10T13:03:16.306Z,3.10
2022-10-10T13:05:43.556Z,3.20
2022-10-10T13:08:19.427Z,3.13
2022-10-10T13:11:21.414Z,2.63
2022-10-10T13:13:52.671Z,3.28
2022-10-10T13:16:23.147Z,3.13
2022-10-10T13:18:51.226Z,2.92
2022-10-10T13:21:32.657Z,3.47
2022-10-10T13:24:03.760Z,2.78
2022-10-10T13:29:25.584Z,3.00
2022-10-10T13:31:55.077Z,2.95
2022-10-10T13:34:29.472Z,3.00
2022-10-10T13:36:58.356Z,3.25
2022-10-10T13:39:25.750Z,3.10
2022-10-10T13:41:53.686Z,3.42
2022-10-10T13:44:25.495Z,4.07
2022-10-10T13:49:29.518Z,3.63
2022-10-10T13:52:21.542Z,3.05
2022-10-10T13:54:48.939Z,3.47
2022-10-10T13:57:24.109Z,3.33
2022-10-10T14:00:00.652Z,3.28
2022-10-10T14:02:31.576Z,4.07
2022-10-10T14:04:59.065Z,3.93
2022-10-10T14:07:30.624Z,3.58
2022-10-10T14:10:00.189Z,3.70
2022-10-10T14:12:37.338Z,3.88
2022-10-10T14:15:04.932Z,4.32
2022-10-10T14:17:31.530Z,4.88
2022-10-10T14:19:57.903Z,5.25
2022-10-10T14:22:24.310Z,4.70
2022-10-10T14:24:50.679Z,4.40
2022-10-10T14:27:19.879Z,5.25
2022-10-10T14:29:46.851Z,4.40
2022-10-10T14:32:14.485Z,4.03
2022-10-10T14:34:41.159Z,3.28
2022-10-10T14:37:16.857Z,3.45
2022-10-10T14:39:43.201Z,3.28
2022-10-10T14:42:12.618Z,3.88
2022-10-10T14:44:38.958Z,4.20
2022-10-10T14:47:05.439Z,3.20
2022-10-10T14:49:31.770Z,3.20
2022-10-10T14:51:58.138Z,3.22
2022-10-10T14:54:24.499Z,3.60
2022-10-10T14:57:07.744Z,3.30
2022-10-10T14:59:48.255Z,3.33
2022-10-10T15:02:21.714Z,3.00
2022-10-10T15:07:15.880Z,3.22
2022-10-10T15:09:57.685Z,3.17
2022-10-10T15:12:29.313Z,3.28
2022-10-10T15:14:55.687Z,3.55
2022-10-10T15:17:22.572Z,4.13
2022-10-10T15:19:48.911Z,2.97
2022-10-10T15:22:15.252Z,3.05
2022-10-10T15:24:41.595Z,3.95
2022-10-10T15:27:08.004Z,2.83
2022-10-10T15:29:34.387Z,3.15
2022-10-10T15:32:01.667Z,3.22
2022-10-10T15:34:28.062Z,3.67
2022-10-10T15:36:54.385Z,4.88
2022-10-10T15:39:20.780Z,4.40
2022-10-10T15:41:47.298Z,3.67
2022-10-10T15:44:18.783Z,4.75
2022-10-10T15:46:45.918Z,3.80
2022-10-10T15:49:13.478Z,4.65
2022-10-10T15:51:45.167Z,4.88
2022-10-10T15:54:12.255Z,4.82
2022-10-10T15:56:38.922Z,3.78
2022-10-10T15:59:05.582Z,3.55
2022-10-10T16:01:32.422Z,3.75
2022-10-10T16:03:58.896Z,4.03
2022-10-10T16:06:25.969Z,3.63
2022-10-10T16:09:04.232Z,3.95
2022-10-10T16:11:38.969Z,4.15
2022-10-10T16:14:05.330Z,5.22
2022-10-10T16:16:31.904Z,5.93
2022-10-10T16:18:59.668Z,5.20
2022-10-10T16:21:26.369Z,4.15
2022-10-10T16:23:57.902Z,4.63
2022-10-10T16:28:54.483Z,4.50
2022-10-10T16:31:21.235Z,4.50
2022-10-10T16:33:48.667Z,4.07
2022-10-10T16:36:20.916Z,3.90
2022-10-10T16:38:48.256Z,3.95
2022-10-10T16:41:35.611Z,4.82
2022-10-10T16:44:03.094Z,3.90
2022-10-10T16:46:29.565Z,4.10
2022-10-10T16:48:58.521Z,4.00
2022-10-10T16:51:25.454Z,3.85
2022-10-10T16:53:52.142Z,3.80
2022-10-10T16:56:20.546Z,4.07
2022-10-10T16:58:47.328Z,4.82
2022-10-10T17:01:16.203Z,4.28
2022-10-10T17:03:42.980Z,4.10
2022-10-10T17:06:16.151Z,4.63
2022-10-10T17:08:43.174Z,4.13
2022-10-10T17:11:10.049Z,4.70
2022-10-10T17:13:37.954Z,4.93
2022-10-10T17:16:40.452Z,4.30
2022-10-10T17:18:53.126Z,5.05
2022-10-10T17:21:24.623Z,5.60
2022-10-10T17:23:51.639Z,5.43
2022-10-10T17:26:22.483Z,6.25
2022-10-10T17:28:50.347Z,6.27
2022-10-10T17:31:17.689Z,6.25
2022-10-10T17:33:53.291Z,7.38
2022-10-10T17:36:23.333Z,7.05
2022-10-10T17:38:49.747Z,6.28
2022-10-10T17:41:16.961Z,6.28
2022-10-10T17:43:44.096Z,5.68
2022-10-10T17:46:33.177Z,6.35
2022-10-10T17:48:59.797Z,6.03
2022-10-10T17:51:26.163Z,6.22
2022-10-10T17:53:52.940Z,6.28
2022-10-10T17:56:21.554Z,6.00
2022-10-10T17:58:48.873Z,6.20
2022-10-10T18:01:16.518Z,6.95
2022-10-10T18:03:43.188Z,6.45
2022-10-10T18:06:15.095Z,7.20
2022-10-10T18:08:41.567Z,5.60
2022-10-10T18:11:23.257Z,6.10
2022-10-10T18:13:50.505Z,5.45
2022-10-10T18:16:21.378Z,5.47
2022-10-10T18:18:51.390Z,5.90
2022-10-10T18:21:20.615Z,4.68
2022-10-10T18:23:47.982Z,5.10
2022-10-10T18:26:20.592Z,4.85
2022-10-10T18:28:47.870Z,5.00
2022-10-10T18:31:21.082Z,4.65
2022-10-10T18:33:48.452Z,4.88
2022-10-10T18:36:20.350Z,5.03
2022-10-10T18:38:46.946Z,5.70
2022-10-10T18:41:18.672Z,6.07
2022-10-10T18:46:14.489Z,4.50
2022-10-10T18:48:41.902Z,4.63
2022-10-10T18:51:16.791Z,5.45
2022-10-10T18:53:45.507Z,4.68
2022-10-10T18:56:14.077Z,5.32
2022-10-10T18:58:41.287Z,7.72
2022-10-10T19:01:12.704Z,4.78
2022-10-10T19:03:40.519Z,4.65
2022-10-10T19:06:09.748Z,4.30
2022-10-10T19:08:37.100Z,4.22
2022-10-10T19:11:05.342Z,4.30
2022-10-10T19:13:33.043Z,3.75
2022-10-10T19:16:04.509Z,4.22
2022-10-10T19:18:30.873Z,4.90
2022-10-10T19:21:05.437Z,4.47
2022-10-10T19:23:33.682Z,4.40
2022-10-10T19:26:08.506Z,4.20
2022-10-10T19:28:36.234Z,4.40
2022-10-10T19:31:05.779Z,4.45
2022-10-10T19:33:32.751Z,4.18
2022-10-10T19:36:01.892Z,4.75
2022-10-10T19:38:30.477Z,3.97
2022-10-10T19:40:56.881Z,3.95
2022-10-10T19:43:23.324Z,4.47
2022-10-10T19:45:53.516Z,4.10
2022-10-10T19:48:21.395Z,3.58
2022-10-10T19:50:48.504Z,4.57
2022-10-10T19:53:18.102Z,4.22
2022-10-10T19:55:55.932Z,4.32
2022-10-10T19:58:22.268Z,3.90
2022-10-10T20:00:48.752Z,4.57
2022-10-10T20:03:15.148Z,4.18
2022-10-10T20:05:41.464Z,3.97
2022-10-10T20:08:07.772Z,3.60
2022-10-10T20:10:34.243Z,4.50
2022-10-10T20:13:00.598Z,3.88
2022-10-10T20:15:26.953Z,4.93
2022-10-10T20:17:53.318Z,4.60
2022-10-10T20:20:19.744Z,5.10
2022-10-10T20:22:46.155Z,4.85
2022-10-10T20:25:12.588Z,4.25
2022-10-10T20:27:39.051Z,4.60
2022-10-10T20:30:06.059Z,3.95
2022-10-10T20:32:32.556Z,5.15
2022-10-10T20:34:58.937Z,3.83
2022-10-10T20:37:25.290Z,5.03
2022-10-10T20:39:51.625Z,4.65
2022-10-10T20:42:17.991Z,4.70
2022-10-10T20:44:44.350Z,4.50
2022-10-10T20:47:10.704Z,4.70
2022-10-10T20:49:37.155Z,4.22
2022-10-10T20:52:03.520Z,6.05
2022-10-10T20:54:29.909Z,4.72
2022-10-10T20:56:56.217Z,5.68
2022-10-10T20:59:24.345Z,5.45
2022-10-10T21:01:50.955Z,5.20
2022-10-10T21:04:17.484Z,5.60
2022-10-10T21:06:43.919Z,5.63
2022-10-10T21:09:12.760Z,6.18
2022-10-10T21:11:39.654Z,5.90
2022-10-10T21:14:07.085Z,5.47
2022-10-10T21:16:36.920Z,6.15
2022-10-10T21:19:04.778Z,5.10
2022-10-10T21:21:33.485Z,5.30
2022-10-10T21:24:00.889Z,4.70
2022-10-10T21:26:28.602Z,5.57
2022-10-10T21:28:55.870Z,4.82
2022-10-10T21:31:25.837Z,5.20
2022-10-10T21:33:53.352Z,4.85
2022-10-10T21:36:21.199Z,4.00
2022-10-10T21:38:47.729Z,4.03
2022-10-10T21:41:18.986Z,4.00
2022-10-10T21:43:47.475Z,4.20
2022-10-10T21:46:17.025Z,3.47
2022-10-10T21:48:43.994Z,3.75
2022-10-10T21:51:10.533Z,3.90
2022-10-10T21:53:37.079Z,3.40
2022-10-10T21:56:06.550Z,2.90
2022-10-10T21:58:36.063Z,3.10
2022-10-10T22:01:20.239Z,2.70
2022-10-10T22:03:48.869Z,3.60
2022-10-10T22:06:18.239Z,4.10
2022-10-10T22:08:45.052Z,3.30
2022-10-10T22:11:15.499Z,3.40
2022-10-10T22:13:41.940Z,2.67
2022-10-10T22:16:09.387Z,2.95
2022-10-10T22:18:36.688Z,2.97
2022-10-10T22:21:12.405Z,2.72
2022-10-10T22:23:39.203Z,2.58
2022-10-10T22:26:11.299Z,2.50
2022-10-10T22:28:37.720Z,3.33
2022-10-10T22:31:06.094Z,2.67
2022-10-10T22:33:32.402Z,3.40
2022-10-10T22:35:58.805Z,3.60
2022-10-10T22:38:25.262Z,1.85
2022-10-10T22:40:51.863Z,2.85
2022-10-10T22:43:18.304Z,3.13
2022-10-10T22:45:44.753Z,2.65
2022-10-10T22:48:11.168Z,2.42
2022-10-10T22:50:38.602Z,1.90
2022-10-10T22:53:06.052Z,2.35
2022-10-10T22:55:33.545Z,2.97
2022-10-10T22:57:59.950Z,1.83
2022-10-10T23:00:26.398Z,1.77
2022-10-10T23:02:56.750Z,2.38
2022-10-10T23:05:23.182Z,2.22
2022-10-10T23:07:49.513Z,1.65
2022-10-10T23:10:15.855Z,3.13
2022-10-10T23:12:42.782Z,1.90
2022-10-10T23:15:09.425Z,1.65
2022-10-10T23:17:36.561Z,2.35
2022-10-10T23:20:03.764Z,1.77
2022-10-10T23:22:30.102Z,2.88
2022-10-10T23:24:56.457Z,1.70
2022-10-10T23:27:22.830Z,1.92
2022-10-10T23:29:49.146Z,2.20
2022-10-10T23:32:15.508Z,1.83
2022-10-10T23:34:41.842Z,1.85
2022-10-10T23:37:08.198Z,2.00
2022-10-10T23:39:34.580Z,2.50
2022-10-10T23:42:00.927Z,2.17
2022-10-10T23:44:27.257Z,3.15
2022-10-10T23:46:53.579Z,2.50
2022-10-10T23:49:19.918Z,1.52
2022-10-10T23:51:46.226Z,2.05
2022-10-10T23:54:12.536Z,2.20
2022-10-10T23:56:38.899Z,1.50
2022-10-10T23:59:05.210Z,2.20
